createdAt,value
2024-03-02T19:20:12.754Z,8.30
2024-03-02T19:22:39.871Z,10.70
2024-03-02T19:25:10.588Z,10.18
2024-03-02T19:27:38.296Z,12.55
2024-03-02T19:30:08.655Z,10.85
2024-03-02T19:32:35.634Z,11.90
2024-03-02T19:35:02.518Z,11.45
2024-03-02T19:37:29.358Z,11.82
2024-03-02T19:39:56.393Z,12.20
2024-03-02T19:42:23.224Z,12.35
2024-03-02T19:44:49.873Z,12.25
2024-03-02T19:47:19.515Z,12.75
2024-03-02T19:49:47.215Z,11.18
2024-03-02T19:52:14.009Z,12.23
2024-03-02T19:54:40.814Z,12.68
2024-03-02T19:57:07.526Z,12.75
2024-03-02T19:59:34.224Z,11.90
2024-03-02T20:02:00.958Z,11.50
2024-03-02T20:04:27.666Z,12.13
2024-03-02T20:06:55.290Z,12.35
2024-03-02T20:09:22.471Z,11.35
2024-03-02T20:11:55.504Z,13.32
2024-03-02T20:14:22.609Z,11.45
2024-03-02T20:16:49.297Z,13.93
2024-03-02T20:19:18.481Z,11.70
2024-03-02T20:21:45.462Z,11.93
2024-03-02T20:24:12.245Z,14.55
2024-03-02T20:26:39.138Z,12.45
2024-03-02T20:29:05.800Z,12.13
2024-03-02T20:31:32.530Z,11.60
2024-03-02T20:33:59.478Z,12.52
2024-03-02T20:36:26.116Z,14.18
2024-03-02T20:38:52.828Z,13.75
2024-03-02T20:41:20.668Z,11.82
2024-03-02T20:43:57.901Z,13.35
2024-03-02T20:46:24.595Z,15.88
2024-03-02T20:48:51.363Z,14.48
2024-03-02T20:51:18.118Z,14.20
2024-03-02T20:53:44.808Z,14.98
2024-03-02T20:56:11.545Z,12.32
2024-03-02T20:58:38.207Z,14.07
2024-03-02T21:01:06.361Z,14.25
2024-03-02T21:03:34.206Z,15.75
2024-03-02T21:06:01.687Z,13.68
2024-03-02T21:08:28.687Z,14.90
2024-03-02T21:10:55.389Z,14.45
2024-03-02T21:13:22.322Z,14.30
2024-03-02T21:15:50.114Z,14.95
2024-03-02T21:18:18.658Z,16.70
2024-03-02T21:20:45.313Z,15.23
2024-03-02T21:23:15.630Z,15.70
2024-03-02T21:25:42.864Z,16.17
2024-03-02T21:28:09.722Z,15.60
2024-03-02T21:30:37.048Z,13.85
2024-03-02T21:33:07.995Z,15.77
2024-03-02T21:35:34.782Z,15.15
2024-03-02T21:38:04.211Z,14.77
2024-03-02T21:40:31.945Z,14.38
2024-03-02T21:42:59.455Z,15.98
2024-03-02T21:45:26.716Z,13.80
2024-03-02T21:47:53.428Z,13.85
2024-03-02T21:50:20.109Z,15.10
2024-03-02T21:52:47.917Z,16.15
2024-03-02T21:55:14.796Z,16.27
2024-03-02T21:57:42.259Z,14.77
2024-03-02T22:00:10.214Z,17.10
2024-03-02T22:02:37.050Z,15.55
2024-03-02T22:05:03.846Z,14.48
2024-03-02T22:07:30.645Z,14.00
2024-03-02T22:09:58.370Z,16.73
2024-03-02T22:12:25.108Z,15.23
2024-03-02T22:14:51.935Z,13.38
2024-03-02T22:17:18.603Z,18.48
2024-03-02T22:19:45.346Z,15.70
2024-03-02T22:22:12.175Z,15.82
2024-03-02T22:24:38.992Z,15.60
2024-03-02T22:27:06.097Z,15.38
2024-03-02T22:29:32.796Z,15.27
2024-03-02T22:32:02.609Z,16.45
2024-03-02T22:34:29.705Z,15.57
2024-03-02T22:36:56.504Z,14.57
2024-03-02T22:39:23.147Z,16.45
2024-03-02T22:41:51.771Z,17.75
2024-03-02T22:44:21.708Z,16.45
2024-03-02T22:46:48.365Z,15.93
2024-03-02T22:49:15.464Z,16.77
2024-03-02T22:51:42.331Z,16.45
2024-03-02T22:54:09.019Z,16.95
2024-03-02T22:56:35.624Z,15.20
2024-03-02T22:59:02.495Z,14.70
2024-03-02T23:01:29.227Z,18.17
2024-03-02T23:03:55.893Z,15.88
2024-03-02T23:06:23.979Z,16.70
2024-03-02T23:08:50.685Z,16.65
2024-03-02T23:11:17.739Z,16.40
2024-03-02T23:13:44.522Z,18.15
2024-03-02T23:16:11.260Z,18.92
2024-03-02T23:18:38.030Z,18.25
2024-03-02T23:21:05.064Z,20.52
2024-03-02T23:23:31.734Z,18.27
2024-03-02T23:25:58.354Z,20.77
2024-03-02T23:28:25.121Z,17.77
2024-03-02T23:30:51.897Z,19.08
2024-03-02T23:33:18.575Z,20.40
2024-03-02T23:35:45.486Z,20.13
2024-03-02T23:38:12.113Z,19.52
2024-03-02T23:41:09.123Z,18.88
2024-03-02T23:43:37.226Z,19.92
2024-03-02T23:46:05.865Z,18.40
2024-03-02T23:48:32.626Z,18.38
2024-03-02T23:50:59.314Z,18.73
2024-03-02T23:53:25.951Z,17.98
2024-03-02T23:55:53.361Z,22.52
2024-03-02T23:58:20.500Z,23.27
